sensor_id;sensor_type;location;lat;lon;timestamp;pressure;altitude;pressure_sealevel;temperature;humidity
12803;BME280;6465;42.700;23.278;2024-01-30T00:02:00;96935.66;;;0.91;63.64
12803;BME280;6465;42.700;23.278;2024-01-30T00:04:27;96945.03;;;0.86;64.33
12803;BME280;6465;42.700;23.278;2024-01-30T00:06:54;96947.56;;;0.85;64.29
12803;BME280;6465;42.700;23.278;2024-01-30T00:09:22;96947.53;;;0.83;64.25
12803;BME280;6465;42.700;23.278;2024-01-30T00:11:49;96938.84;;;0.76;64.65
12803;BME280;6465;42.700;23.278;2024-01-30T00:14:16;96943.13;;;0.76;64.88
12803;BME280;6465;42.700;23.278;2024-01-30T00:16:44;96946.53;;;0.75;64.81
12803;BME280;6465;42.700;23.278;2024-01-30T00:19:12;96953.44;;;0.76;64.51
12803;BME280;6465;42.700;23.278;2024-01-30T00:21:38;96945.81;;;0.81;64.27
12803;BME280;6465;42.700;23.278;2024-01-30T00:24:06;96949.09;;;0.72;64.56
12803;BME280;6465;42.700;23.278;2024-01-30T00:26:34;96945.72;;;0.77;64.44
12803;BME280;6465;42.700;23.278;2024-01-30T00:29:01;96944.75;;;0.71;64.07
12803;BME280;6465;42.700;23.278;2024-01-30T00:31:29;96951.56;;;0.66;64.54
12803;BME280;6465;42.700;23.278;2024-01-30T00:33:56;96947.19;;;0.63;64.22
12803;BME280;6465;42.700;23.278;2024-01-30T00:36:23;96938.47;;;0.57;64.69
12803;BME280;6465;42.700;23.278;2024-01-30T00:38:50;96940.97;;;0.51;64.79
12803;BME280;6465;42.700;23.278;2024-01-30T00:41:17;96939.22;;;0.50;64.96
12803;BME280;6465;42.700;23.278;2024-01-30T00:43:46;96937.47;;;0.49;64.90
12803;BME280;6465;42.700;23.278;2024-01-30T00:46:13;96937.44;;;0.46;65.09
12803;BME280;6465;42.700;23.278;2024-01-30T00:48:39;96940.84;;;0.45;65.26
12803;BME280;6465;42.700;23.278;2024-01-30T00:51:06;96943.19;;;0.34;65.43
12803;BME280;6465;42.700;23.278;2024-01-30T00:53:33;96938.13;;;0.37;65.09
12803;BME280;6465;42.700;23.278;2024-01-30T00:56:00;96939.78;;;0.35;64.98
12803;BME280;6465;42.700;23.278;2024-01-30T00:58:27;96944.94;;;0.33;65.17
12803;BME280;6465;42.700;23.278;2024-01-30T01:00:55;96937.91;;;0.25;65.42
12803;BME280;6465;42.700;23.278;2024-01-30T01:03:22;96936.16;;;0.24;65.43
12803;BME280;6465;42.700;23.278;2024-01-30T01:05:49;96943.91;;;0.25;65.25
12803;BME280;6465;42.700;23.278;2024-01-30T01:08:16;96943.84;;;0.22;65.58
12803;BME280;6465;42.700;23.278;2024-01-30T01:10:43;96940.34;;;0.20;65.51
12803;BME280;6465;42.700;23.278;2024-01-30T01:13:10;96938.69;;;0.22;65.49
12803;BME280;6465;42.700;23.278;2024-01-30T01:15:37;96942.09;;;0.21;65.50
12803;BME280;6465;42.700;23.278;2024-01-30T01:18:06;96937.81;;;0.22;65.50
12803;BME280;6465;42.700;23.278;2024-01-30T01:20:33;96941.28;;;0.22;65.54
12803;BME280;6465;42.700;23.278;2024-01-30T01:22:59;96940.31;;;0.17;65.72
12803;BME280;6465;42.700;23.278;2024-01-30T01:25:26;96940.34;;;0.20;65.63
12803;BME280;6465;42.700;23.278;2024-01-30T01:27:53;96942.84;;;0.16;65.65
12803;BME280;6465;42.700;23.278;2024-01-30T01:30:21;96938.63;;;0.18;65.64
12803;BME280;6465;42.700;23.278;2024-01-30T01:32:48;96940.25;;;0.14;65.75
12803;BME280;6465;42.700;23.278;2024-01-30T01:35:22;96942.91;;;0.17;65.62
12803;BME280;6465;42.700;23.278;2024-01-30T01:37:50;96951.41;;;0.13;65.51
12803;BME280;6465;42.700;23.278;2024-01-30T01:40:21;96952.25;;;0.12;65.45
12803;BME280;6465;42.700;23.278;2024-01-30T01:42:49;96953.06;;;0.11;65.62
12803;BME280;6465;42.700;23.278;2024-01-30T01:45:16;96946.06;;;0.04;65.38
12803;BME280;6465;42.700;23.278;2024-01-30T01:47:43;96942.47;;;-0.04;65.54
12803;BME280;6465;42.700;23.278;2024-01-30T01:50:12;96948.63;;;0.04;65.53
12803;BME280;6465;42.700;23.278;2024-01-30T01:52:41;96948.63;;;0.04;65.64
12803;BME280;6465;42.700;23.278;2024-01-30T01:55:08;96939.97;;;-0.01;65.68
12803;BME280;6465;42.700;23.278;2024-01-30T01:57:36;96944.28;;;0.00;65.72
12803;BME280;6465;42.700;23.278;2024-01-30T02:00:03;96952.00;;;0.00;65.45
12803;BME280;6465;42.700;23.278;2024-01-30T02:02:35;96953.66;;;-0.02;65.84
12803;BME280;6465;42.700;23.278;2024-01-30T02:05:02;96962.22;;;-0.03;65.70
12803;BME280;6465;42.700;23.278;2024-01-30T02:07:30;96952.81;;;-0.03;65.34
12803;BME280;6465;42.700;23.278;2024-01-30T02:09:58;96953.63;;;-0.04;65.03
12803;BME280;6465;42.700;23.278;2024-01-30T02:12:25;96958.75;;;-0.05;65.36
12803;BME280;6465;42.700;23.278;2024-01-30T02:14:52;96957.91;;;-0.04;65.50
12803;BME280;6465;42.700;23.278;2024-01-30T02:17:20;96957.06;;;-0.03;65.37
12803;BME280;6465;42.700;23.278;2024-01-30T02:19:48;96956.28;;;-0.01;65.36
12803;BME280;6465;42.700;23.278;2024-01-30T02:22:17;96952.00;;;0.00;64.76
12803;BME280;6465;42.700;23.278;2024-01-30T02:24:44;96958.13;;;0.05;64.93
12803;BME280;6465;42.700;23.278;2024-01-30T02:27:11;96933.78;;;-0.09;64.80
12803;BME280;6465;42.700;23.278;2024-01-30T02:29:38;96948.63;;;0.04;65.18
12803;BME280;6465;42.700;23.278;2024-01-30T02:32:06;96947.03;;;0.09;65.02
12803;BME280;6465;42.700;23.278;2024-01-30T02:34:33;96952.13;;;0.06;64.96
12803;BME280;6465;42.700;23.278;2024-01-30T02:37:00;96945.22;;;0.05;65.08
12803;BME280;6465;42.700;23.278;2024-01-30T02:39:28;96927.91;;;-0.02;65.36
12803;BME280;6465;42.700;23.278;2024-01-30T02:41:55;96947.03;;;0.09;65.02
12803;BME280;6465;42.700;23.278;2024-01-30T02:44:22;96948.81;;;0.12;64.98
12803;BME280;6465;42.700;23.278;2024-01-30T02:46:49;96941.19;;;0.18;64.70
12803;BME280;6465;42.700;23.278;2024-01-30T02:49:16;96949.00;;;0.22;64.18
12803;BME280;6465;42.700;23.278;2024-01-30T02:51:43;96946.38;;;0.21;64.57
12803;BME280;6465;42.700;23.278;2024-01-30T02:54:10;96954.22;;;0.25;64.54
12803;BME280;6465;42.700;23.278;2024-01-30T02:56:38;96942.19;;;0.24;64.19
12803;BME280;6465;42.700;23.278;2024-01-30T02:59:05;96948.16;;;0.23;64.05
12803;BME280;6465;42.700;23.278;2024-01-30T03:01:33;96949.84;;;0.21;64.17
12803;BME280;6465;42.700;23.278;2024-01-30T03:04:00;96945.59;;;0.23;63.95
12803;BME280;6465;42.700;23.278;2024-01-30T03:06:27;96947.22;;;0.18;64.05
12803;BME280;6465;42.700;23.278;2024-01-30T03:08:54;96945.59;;;0.23;64.06
12803;BME280;6465;42.700;23.278;2024-01-30T03:11:21;96935.22;;;0.20;64.33
12803;BME280;6465;42.700;23.278;2024-01-30T03:13:49;96939.66;;;0.27;63.70
12803;BME280;6465;42.700;23.278;2024-01-30T03:16:17;96943.97;;;0.28;63.95
12803;BME280;6465;42.700;23.278;2024-01-30T03:18:44;96932.75;;;0.25;63.84
12803;BME280;6465;42.700;23.278;2024-01-30T03:21:11;96942.38;;;0.33;63.46
12803;BME280;6465;42.700;23.278;2024-01-30T03:23:38;96937.09;;;0.29;63.41
12803;BME280;6465;42.700;23.278;2024-01-30T03:26:05;96943.09;;;0.26;63.50
12803;BME280;6465;42.700;23.278;2024-01-30T03:28:32;96933.47;;;0.18;63.17
12803;BME280;6465;42.700;23.278;2024-01-30T03:31:01;96941.28;;;0.22;62.98
12803;BME280;6465;42.700;23.278;2024-01-30T03:33:27;96938.56;;;0.16;63.29
12803;BME280;6465;42.700;23.278;2024-01-30T03:35:54;96938.56;;;0.16;63.02
12803;BME280;6465;42.700;23.278;2024-01-30T03:38:21;96935.09;;;0.14;63.48
12803;BME280;6465;42.700;23.278;2024-01-30T03:40:48;96928.22;;;0.13;63.19
12803;BME280;6465;42.700;23.278;2024-01-30T03:43:15;96929.94;;;0.14;62.99
12803;BME280;6465;42.700;23.278;2024-01-30T03:45:42;96927.38;;;0.14;63.12
12803;BME280;6465;42.700;23.278;2024-01-30T03:48:10;96931.66;;;0.14;62.92
12803;BME280;6465;42.700;23.278;2024-01-30T03:50:37;96929.06;;;0.12;62.64
12803;BME280;6465;42.700;23.278;2024-01-30T03:53:04;96928.22;;;0.13;62.89
12803;BME280;6465;42.700;23.278;2024-01-30T03:55:31;96924.75;;;0.11;62.47
12803;BME280;6465;42.700;23.278;2024-01-30T03:57:58;96925.78;;;0.21;61.99
12803;BME280;6465;42.700;23.278;2024-01-30T04:00:25;96925.78;;;0.19;61.93
12803;BME280;6465;42.700;23.278;2024-01-30T04:02:52;96921.25;;;0.09;62.19
12803;BME280;6465;42.700;23.278;2024-01-30T04:05:21;96922.09;;;0.08;62.15
12803;BME280;6465;42.700;23.278;2024-01-30T04:07:47;96922.88;;;0.04;62.45
12803;BME280;6465;42.700;23.278;2024-01-30T04:10:14;96921.09;;;0.02;62.35
12803;BME280;6465;42.700;23.278;2024-01-30T04:12:41;96916.75;;;-0.03;61.96
12803;BME280;6465;42.700;23.278;2024-01-30T04:15:09;96918.38;;;-0.06;62.34
12803;BME280;6465;42.700;23.278;2024-01-30T04:17:36;96915.75;;;-0.09;62.39
12803;BME280;6465;42.700;23.278;2024-01-30T04:20:04;96914.88;;;-0.10;62.98
12803;BME280;6465;42.700;23.278;2024-01-30T04:22:33;96919.16;;;-0.10;63.08
12803;BME280;6465;42.700;23.278;2024-01-30T04:24:59;96919.28;;;-0.04;62.99
12803;BME280;6465;42.700;23.278;2024-01-30T04:27:26;96925.34;;;-0.02;62.65
12803;BME280;6465;42.700;23.278;2024-01-30T04:29:53;96929.63;;;-0.03;62.56
12803;BME280;6465;42.700;23.278;2024-01-30T04:32:20;96937.28;;;-0.07;62.79
12803;BME280;6465;42.700;23.278;2024-01-30T04:34:47;96933.81;;;-0.08;62.87
12803;BME280;6465;42.700;23.278;2024-01-30T04:37:14;96932.91;;;-0.10;63.04
12803;BME280;6465;42.700;23.278;2024-01-30T04:39:43;96935.44;;;-0.11;63.13
12803;BME280;6465;42.700;23.278;2024-01-30T04:42:10;96931.09;;;-0.15;63.51
12803;BME280;6465;42.700;23.278;2024-01-30T04:44:37;96944.84;;;-0.15;63.39
12803;BME280;6465;42.700;23.278;2024-01-30T04:47:04;96939.69;;;-0.13;63.20
12803;BME280;6465;42.700;23.278;2024-01-30T04:49:34;96940.63;;;-0.10;63.09
12803;BME280;6465;42.700;23.278;2024-01-30T04:52:01;96953.53;;;-0.08;63.18
12803;BME280;6465;42.700;23.278;2024-01-30T04:54:28;96956.03;;;-0.11;63.28
12803;BME280;6465;42.700;23.278;2024-01-30T04:56:56;96961.94;;;-0.17;63.34
12803;BME280;6465;42.700;23.278;2024-01-30T04:59:23;96958.44;;;-0.20;63.58
12803;BME280;6465;42.700;23.278;2024-01-30T05:01:50;96961.03;;;-0.19;63.69
12803;BME280;6465;42.700;23.278;2024-01-30T05:04:17;96960.03;;;-0.25;63.93
12803;BME280;6465;42.700;23.278;2024-01-30T05:06:44;96956.44;;;-0.32;64.20
12803;BME280;6465;42.700;23.278;2024-01-30T05:09:11;96964.13;;;-0.35;64.23
12803;BME280;6465;42.700;23.278;2024-01-30T05:11:39;96959.84;;;-0.34;64.51
12803;BME280;6465;42.700;23.278;2024-01-30T05:14:08;96963.22;;;-0.37;64.55
12803;BME280;6465;42.700;23.278;2024-01-30T05:16:37;96962.44;;;-0.34;64.59
12803;BME280;6465;42.700;23.278;2024-01-30T05:19:04;96956.50;;;-0.30;64.23
12803;BME280;6465;42.700;23.278;2024-01-30T05:21:30;96967.59;;;-0.33;64.37
12803;BME280;6465;42.700;23.278;2024-01-30T05:23:57;96965.88;;;-0.32;64.32
12803;BME280;6465;42.700;23.278;2024-01-30T05:26:24;96965.00;;;-0.34;64.55
12803;BME280;6465;42.700;23.278;2024-01-30T05:28:52;96965.00;;;-0.33;64.53
12803;BME280;6465;42.700;23.278;2024-01-30T05:31:20;96973.69;;;-0.29;64.22
12803;BME280;6465;42.700;23.278;2024-01-30T05:33:47;96970.19;;;-0.31;64.34
12803;BME280;6465;42.700;23.278;2024-01-30T05:36:14;96971.03;;;-0.32;63.97
12803;BME280;6465;42.700;23.278;2024-01-30T05:38:41;96963.19;;;-0.38;63.70
12803;BME280;6465;42.700;23.278;2024-01-30T05:41:09;96969.19;;;-0.38;64.21
12803;BME280;6465;42.700;23.278;2024-01-30T05:43:36;96966.56;;;-0.40;64.03
12803;BME280;6465;42.700;23.278;2024-01-30T05:46:03;96967.34;;;-0.44;64.27
12803;BME280;6465;42.700;23.278;2024-01-30T05:48:31;96970.00;;;-0.41;64.21
12803;BME280;6465;42.700;23.278;2024-01-30T05:50:58;96963.13;;;-0.42;64.21
12803;BME280;6465;42.700;23.278;2024-01-30T05:53:26;96971.72;;;-0.41;64.06
12803;BME280;6465;42.700;23.278;2024-01-30T05:55:53;96956.28;;;-0.40;63.65
12803;BME280;6465;42.700;23.278;2024-01-30T05:58:20;96949.47;;;-0.37;63.33
12803;BME280;6465;42.700;23.278;2024-01-30T06:00:47;96958.91;;;-0.38;63.17
12803;BME280;6465;42.700;23.278;2024-01-30T06:03:14;96966.53;;;-0.43;63.03
12803;BME280;6465;42.700;23.278;2024-01-30T06:05:42;96966.53;;;-0.43;63.21
12803;BME280;6465;42.700;23.278;2024-01-30T06:08:09;96966.53;;;-0.43;62.71
12803;BME280;6465;42.700;23.278;2024-01-30T06:10:36;96966.34;;;-0.50;63.16
12803;BME280;6465;42.700;23.278;2024-01-30T06:13:04;96968.13;;;-0.48;62.93
12803;BME280;6465;42.700;23.278;2024-01-30T06:15:31;96969.88;;;-0.45;62.46
12803;BME280;6465;42.700;23.278;2024-01-30T06:17:59;96965.31;;;-0.58;62.12
12803;BME280;6465;42.700;23.278;2024-01-30T06:20:26;96970.44;;;-0.58;62.43
12803;BME280;6465;42.700;23.278;2024-01-30T06:22:54;96977.34;;;-0.57;62.42
12803;BME280;6465;42.700;23.278;2024-01-30T06:25:21;96973.09;;;-0.55;62.46
12803;BME280;6465;42.700;23.278;2024-01-30T06:27:48;96980.81;;;-0.55;62.66
12803;BME280;6465;42.700;23.278;2024-01-30T06:30:15;96978.44;;;-0.46;62.36
12803;BME280;6465;42.700;23.278;2024-01-30T06:32:42;96981.88;;;-0.46;62.67
12803;BME280;6465;42.700;23.278;2024-01-30T06:35:09;96974.22;;;-0.44;62.41
12803;BME280;6465;42.700;23.278;2024-01-30T06:37:36;96969.28;;;-0.35;62.35
12803;BME280;6465;42.700;23.278;2024-01-30T06:40:06;96977.78;;;-0.37;62.48
12803;BME280;6465;42.700;23.278;2024-01-30T06:42:33;96978.00;;;-0.27;62.25
12803;BME280;6465;42.700;23.278;2024-01-30T06:45:00;96979.97;;;-0.17;61.79
12803;BME280;6465;42.700;23.278;2024-01-30T06:47:27;96978.31;;;-0.15;61.29
12803;BME280;6465;42.700;23.278;2024-01-30T06:49:56;96974.03;;;-0.14;61.26
12803;BME280;6465;42.700;23.278;2024-01-30T06:52:23;96975.69;;;-0.16;61.31
12803;BME280;6465;42.700;23.278;2024-01-30T06:54:50;96972.41;;;-0.09;61.32
12803;BME280;6465;42.700;23.278;2024-01-30T06:57:18;96977.59;;;-0.06;61.36
12803;BME280;6465;42.700;23.278;2024-01-30T06:59:45;96977.00;;;0.06;60.85
12803;BME280;6465;42.700;23.278;2024-01-30T07:02:12;96977.84;;;0.05;60.90
12803;BME280;6465;42.700;23.278;2024-01-30T07:04:39;96984.75;;;0.07;60.86
12803;BME280;6465;42.700;23.278;2024-01-30T07:07:07;96979.78;;;0.16;60.54
12803;BME280;6465;42.700;23.278;2024-01-30T07:09:51;96981.69;;;0.25;60.25
12803;BME280;6465;42.700;23.278;2024-01-30T07:12:23;96990.28;;;0.25;60.17
12803;BME280;6465;42.700;23.278;2024-01-30T07:14:51;96985.50;;;0.44;59.66
12803;BME280;6465;42.700;23.278;2024-01-30T07:17:18;96981.28;;;0.47;59.32
12803;BME280;6465;42.700;23.278;2024-01-30T07:19:45;96978.59;;;0.43;59.04
12803;BME280;6465;42.700;23.278;2024-01-30T07:22:12;96979.34;;;0.37;59.42
12803;BME280;6465;42.700;23.278;2024-01-30T07:24:42;96985.56;;;0.48;58.42
12803;BME280;6465;42.700;23.278;2024-01-30T07:27:13;96982.28;;;0.54;58.89
12803;BME280;6465;42.700;23.278;2024-01-30T07:29:44;96986.50;;;0.52;59.04
12803;BME280;6465;42.700;23.278;2024-01-30T07:32:11;96980.53;;;0.54;59.07
12803;BME280;6465;42.700;23.278;2024-01-30T07:34:38;96984.81;;;0.52;59.09
12803;BME280;6465;42.700;23.278;2024-01-30T07:37:05;96977.94;;;0.54;58.71
12803;BME280;6465;42.700;23.278;2024-01-30T07:39:33;96976.50;;;0.67;58.76
12803;BME280;6465;42.700;23.278;2024-01-30T07:42:01;96975.00;;;0.79;57.97
12803;BME280;6465;42.700;23.278;2024-01-30T07:44:28;96978.69;;;0.95;57.02
12803;BME280;6465;42.700;23.278;2024-01-30T07:46:56;96977.53;;;0.78;57.71
12803;BME280;6465;42.700;23.278;2024-01-30T07:49:23;96974.50;;;1.00;56.91
12803;BME280;6465;42.700;23.278;2024-01-30T07:51:50;96972.56;;;0.87;57.15
12803;BME280;6465;42.700;23.278;2024-01-30T07:54:17;96960.59;;;0.92;57.14
12803;BME280;6465;42.700;23.278;2024-01-30T07:56:44;96970.22;;;1.02;57.03
12803;BME280;6465;42.700;23.278;2024-01-30T07:59:12;96963.97;;;0.88;57.14
12803;BME280;6465;42.700;23.278;2024-01-30T08:01:39;96970.16;;;0.98;57.47
12803;BME280;6465;42.700;23.278;2024-01-30T08:04:07;96975.59;;;1.13;56.18
12803;BME280;6465;42.700;23.278;2024-01-30T08:06:34;96935.56;;;0.85;55.44
12803;BME280;6465;42.700;23.278;2024-01-30T08:09:01;96967.53;;;0.96;55.85
12803;BME280;6465;42.700;23.278;2024-01-30T08:11:28;96976.00;;;0.89;56.30
12803;BME280;6465;42.700;23.278;2024-01-30T08:13:56;96963.84;;;0.82;56.39
12803;BME280;6465;42.700;23.278;2024-01-30T08:16:23;96970.66;;;0.77;57.05
12803;BME280;6465;42.700;23.278;2024-01-30T08:18:50;96969.09;;;0.85;57.24
12803;BME280;6465;42.700;23.278;2024-01-30T08:21:20;96957.06;;;0.86;56.64
12803;BME280;6465;42.700;23.278;2024-01-30T08:23:47;96969.13;;;0.88;56.91
12803;BME280;6465;42.700;23.278;2024-01-30T08:26:14;96961.34;;;0.85;56.87
12803;BME280;6465;42.700;23.278;2024-01-30T08:28:41;96944.94;;;0.80;56.96
12803;BME280;6465;42.700;23.278;2024-01-30T08:31:10;96971.22;;;1.10;56.43
12803;BME280;6465;42.700;23.278;2024-01-30T08:33:37;96971.28;;;1.13;56.71
12803;BME280;6465;42.700;23.278;2024-01-30T08:36:04;96971.41;;;1.23;56.14
12803;BME280;6465;42.700;23.278;2024-01-30T08:38:33;96972.22;;;1.18;55.87
12803;BME280;6465;42.700;23.278;2024-01-30T08:41:00;96972.34;;;1.26;55.92
12803;BME280;6465;42.700;23.278;2024-01-30T08:43:26;96978.50;;;1.36;56.09
12803;BME280;6465;42.700;23.278;2024-01-30T08:45:53;96973.56;;;1.48;55.42
12803;BME280;6465;42.700;23.278;2024-01-30T08:48:22;96990.75;;;1.49;55.68
12803;BME280;6465;42.700;23.278;2024-01-30T08:50:50;96983.72;;;1.39;56.35
12803;BME280;6465;42.700;23.278;2024-01-30T08:53:17;96975.25;;;1.46;57.01
12803;BME280;6465;42.700;23.278;2024-01-30T08:55:46;96975.56;;;1.67;56.12
12803;BME280;6465;42.700;23.278;2024-01-30T08:58:13;96981.53;;;1.65;56.64
12803;BME280;6465;42.700;23.278;2024-01-30T09:00:40;96989.53;;;1.81;56.75
12803;BME280;6465;42.700;23.278;2024-01-30T09:03:07;96991.19;;;1.75;56.27
12803;BME280;6465;42.700;23.278;2024-01-30T09:05:34;96999.59;;;1.63;56.30
12803;BME280;6465;42.700;23.278;2024-01-30T09:08:01;96994.41;;;1.60;56.93
12803;BME280;6465;42.700;23.278;2024-01-30T09:10:28;96996.91;;;1.57;56.74
12803;BME280;6465;42.700;23.278;2024-01-30T09:12:56;97000.22;;;1.48;57.19
12803;BME280;6465;42.700;23.278;2024-01-30T09:15:23;96997.72;;;1.53;57.62
12803;BME280;6465;42.700;23.278;2024-01-30T09:17:50;96986.56;;;1.55;57.73
12803;BME280;6465;42.700;23.278;2024-01-30T09:20:17;96993.56;;;1.63;57.46
12803;BME280;6465;42.700;23.278;2024-01-30T09:22:45;96991.56;;;1.45;57.50
12803;BME280;6465;42.700;23.278;2024-01-30T09:25:12;96992.28;;;1.36;58.23
12803;BME280;6465;42.700;23.278;2024-01-30T09:27:39;96984.53;;;1.36;58.16
12803;BME280;6465;42.700;23.278;2024-01-30T09:30:09;96984.66;;;1.44;58.34
12803;BME280;6465;42.700;23.278;2024-01-30T09:32:35;96982.16;;;1.47;57.91
12803;BME280;6465;42.700;23.278;2024-01-30T09:35:03;96969.31;;;1.51;58.17
12803;BME280;6465;42.700;23.278;2024-01-30T09:37:30;96974.44;;;1.50;57.83
12803;BME280;6465;42.700;23.278;2024-01-30T09:39:57;96965.91;;;1.54;57.83
12803;BME280;6465;42.700;23.278;2024-01-30T09:42:28;96966.78;;;1.56;57.16
12803;BME280;6465;42.700;23.278;2024-01-30T09:44:55;96973.66;;;1.54;57.14
12803;BME280;6465;42.700;23.278;2024-01-30T09:47:24;96961.50;;;1.47;57.11
12803;BME280;6465;42.700;23.278;2024-01-30T09:49:51;96959.66;;;1.40;56.57
12803;BME280;6465;42.700;23.278;2024-01-30T09:52:19;96960.44;;;1.36;57.31
12803;BME280;6465;42.700;23.278;2024-01-30T09:54:47;96968.09;;;1.30;57.11
12803;BME280;6465;42.700;23.278;2024-01-30T09:57:16;96948.16;;;1.19;57.63
12803;BME280;6465;42.700;23.278;2024-01-30T09:59:43;96963.03;;;1.36;57.70
12803;BME280;6465;42.700;23.278;2024-01-30T10:02:10;96971.84;;;1.50;56.84
12803;BME280;6465;42.700;23.278;2024-01-30T10:04:38;96967.56;;;1.50;56.93
12803;BME280;6465;42.700;23.278;2024-01-30T10:07:06;96964.13;;;1.51;57.21
12803;BME280;6465;42.700;23.278;2024-01-30T10:09:33;96968.69;;;1.69;56.75
12803;BME280;6465;42.700;23.278;2024-01-30T10:12:02;96953.19;;;1.69;55.86
12803;BME280;6465;42.700;23.278;2024-01-30T10:14:29;96953.16;;;1.66;55.76
12803;BME280;6465;42.700;23.278;2024-01-30T10:16:57;96940.28;;;1.68;57.27
12803;BME280;6465;42.700;23.278;2024-01-30T10:19:24;96948.16;;;1.78;56.69
12803;BME280;6465;42.700;23.278;2024-01-30T10:21:52;96936.28;;;1.91;56.75
12803;BME280;6465;42.700;23.278;2024-01-30T10:24:24;96945.06;;;2.05;55.38
12803;BME280;6465;42.700;23.278;2024-01-30T10:26:51;96945.03;;;2.04;55.14
12803;BME280;6465;42.700;23.278;2024-01-30T10:29:18;96946.88;;;2.12;54.65
12803;BME280;6465;42.700;23.278;2024-01-30T10:31:45;96954.75;;;2.20;54.81
12803;BME280;6465;42.700;23.278;2024-01-30T10:34:12;96956.41;;;2.18;54.65
12803;BME280;6465;42.700;23.278;2024-01-30T10:36:40;96943.50;;;2.18;54.38
12803;BME280;6465;42.700;23.278;2024-01-30T10:39:09;96947.00;;;2.21;53.94
12803;BME280;6465;42.700;23.278;2024-01-30T10:41:42;96952.94;;;2.16;54.28
12803;BME280;6465;42.700;23.278;2024-01-30T10:44:10;96950.28;;;2.10;54.36
12803;BME280;6465;42.700;23.278;2024-01-30T10:46:39;96943.38;;;2.07;54.93
12803;BME280;6465;42.700;23.278;2024-01-30T10:49:09;96941.66;;;2.08;54.42
12803;BME280;6465;42.700;23.278;2024-01-30T10:51:37;96936.50;;;2.08;54.98
12803;BME280;6465;42.700;23.278;2024-01-30T10:54:05;96933.88;;;2.05;54.51
12803;BME280;6465;42.700;23.278;2024-01-30T10:56:35;96931.09;;;1.89;54.81
12803;BME280;6465;42.700;23.278;2024-01-30T10:59:03;96924.13;;;1.84;55.66
12803;BME280;6465;42.700;23.278;2024-01-30T11:01:30;96927.56;;;1.81;55.59
12803;BME280;6465;42.700;23.278;2024-01-30T11:03:57;96922.41;;;1.84;56.19
12803;BME280;6465;42.700;23.278;2024-01-30T11:06:25;96925.84;;;1.83;55.94
12803;BME280;6465;42.700;23.278;2024-01-30T11:09:10;96915.47;;;1.80;56.24
12803;BME280;6465;42.700;23.278;2024-01-30T11:11:57;96918.91;;;1.79;55.80
12803;BME280;6465;42.700;23.278;2024-01-30T11:14:25;96911.94;;;1.75;56.02
12803;BME280;6465;42.700;23.278;2024-01-30T11:16:53;96908.56;;;1.79;56.13
12803;BME280;6465;42.700;23.278;2024-01-30T11:19:23;96905.19;;;1.83;55.93
12803;BME280;6465;42.700;23.278;2024-01-30T11:21:51;96909.47;;;1.81;55.71
12803;BME280;6465;42.700;23.278;2024-01-30T11:24:19;96901.81;;;1.87;55.79
12803;BME280;6465;42.700;23.278;2024-01-30T11:26:48;96899.25;;;1.90;55.91
12803;BME280;6465;42.700;23.278;2024-01-30T11:29:18;96896.78;;;1.99;56.37
12803;BME280;6465;42.700;23.278;2024-01-30T11:31:54;96884.84;;;2.11;55.84
12803;BME280;6465;42.700;23.278;2024-01-30T11:34:22;96905.69;;;2.26;55.49
12803;BME280;6465;42.700;23.278;2024-01-30T11:36:53;96894.47;;;2.24;55.55
12803;BME280;6465;42.700;23.278;2024-01-30T11:39:24;96897.88;;;2.20;55.14
12803;BME280;6465;42.700;23.278;2024-01-30T11:41:52;96897.75;;;2.11;55.88
12803;BME280;6465;42.700;23.278;2024-01-30T11:44:21;96893.44;;;2.08;55.55
12803;BME280;6465;42.700;23.278;2024-01-30T11:46:48;96896.81;;;2.03;56.00
12803;BME280;6465;42.700;23.278;2024-01-30T11:49:16;96893.31;;;1.97;56.09
12803;BME280;6465;42.700;23.278;2024-01-30T11:51:45;96879.50;;;1.95;56.20
12803;BME280;6465;42.700;23.278;2024-01-30T11:54:14;96893.59;;;2.22;55.89
12803;BME280;6465;42.700;23.278;2024-01-30T11:56:41;96896.19;;;2.23;55.85
12803;BME280;6465;42.700;23.278;2024-01-30T11:59:08;96882.41;;;2.24;55.26
12803;BME280;6465;42.700;23.278;2024-01-30T12:01:37;96878.09;;;2.22;56.25
12803;BME280;6465;42.700;23.278;2024-01-30T12:04:04;96872.94;;;2.25;55.97
12803;BME280;6465;42.700;23.278;2024-01-30T12:06:34;96880.66;;;2.23;55.41
12803;BME280;6465;42.700;23.278;2024-01-30T12:09:02;96865.06;;;2.13;56.16
12803;BME280;6465;42.700;23.278;2024-01-30T12:11:30;96869.41;;;2.17;56.38
12803;BME280;6465;42.700;23.278;2024-01-30T12:13:57;96852.97;;;2.10;55.95
12803;BME280;6465;42.700;23.278;2024-01-30T12:16:24;96857.19;;;2.04;56.34
12803;BME280;6465;42.700;23.278;2024-01-30T12:19:00;96852.13;;;2.13;56.09
12803;BME280;6465;42.700;23.278;2024-01-30T12:21:28;96851.28;;;2.12;56.47
12803;BME280;6465;42.700;23.278;2024-01-30T12:23:56;96844.47;;;2.23;55.44
12803;BME280;6465;42.700;23.278;2024-01-30T12:26:23;96842.72;;;2.19;55.71
12803;BME280;6465;42.700;23.278;2024-01-30T12:28:51;96844.44;;;2.17;56.04
12803;BME280;6465;42.700;23.278;2024-01-30T12:31:25;96847.13;;;2.28;55.39
12803;BME280;6465;42.700;23.278;2024-01-30T12:33:53;96847.13;;;2.28;55.67
12803;BME280;6465;42.700;23.278;2024-01-30T12:36:22;96837.59;;;2.21;55.64
12803;BME280;6465;42.700;23.278;2024-01-30T12:38:49;96831.47;;;2.16;56.03
12803;BME280;6465;42.700;23.278;2024-01-30T12:41:16;96845.34;;;2.24;56.01
12803;BME280;6465;42.700;23.278;2024-01-30T12:43:43;96837.75;;;2.37;55.64
12803;BME280;6465;42.700;23.278;2024-01-30T12:46:11;96826.53;;;2.37;55.15
12803;BME280;6465;42.700;23.278;2024-01-30T12:48:38;96834.25;;;2.32;55.41
12803;BME280;6465;42.700;23.278;2024-01-30T12:51:05;96834.22;;;2.31;55.32
12803;BME280;6465;42.700;23.278;2024-01-30T12:53:33;96828.22;;;2.32;55.40
12803;BME280;6465;42.700;23.278;2024-01-30T12:56:01;96828.19;;;2.29;55.04
12803;BME280;6465;42.700;23.278;2024-01-30T12:58:28;96824.72;;;2.27;55.62
12803;BME280;6465;42.700;23.278;2024-01-30T13:00:55;96820.44;;;2.29;55.28
12803;BME280;6465;42.700;23.278;2024-01-30T13:03:22;96800.47;;;2.16;55.68
12803;BME280;6465;42.700;23.278;2024-01-30T13:05:49;96814.41;;;2.30;55.93
12803;BME280;6465;42.700;23.278;2024-01-30T13:08:16;96815.34;;;2.38;55.55
12803;BME280;6465;42.700;23.278;2024-01-30T13:10:44;96803.25;;;2.37;55.34